Time;durP1;ratioP1;P1;durP2;ratioP2;P2;SDS_P1;SDS_P2;PMS_P1;PMS_P2;Temp;Humidity;BMP_temperature;BMP_pressure;BME280_temperature;BME280_humidity;BME280_pressure;Samples;Min_cycle;Max_cycle;Signal;HPM_P1;HPM_P2
2022/04/04 00:01:31;;;;;;;4.00;3.63;;;;;;;9.84;46.37;94832.53;5111462;28;20204;-76
2022/04/04 00:03:58;;;;;;;4.67;4.23;;;;;;;9.84;46.48;94835.91;5093269;28;20592;-73
2022/04/04 00:06:27;;;;;;;4.40;3.87;;;;;;;9.85;46.41;94840.09;5092999;28;20220;-74
2022/04/04 00:08:54;;;;;;;8.50;4.27;;;;;;;9.88;46.24;94842.38;5093158;28;20661;-75
2022/04/04 00:11:21;;;;;;;4.07;3.67;;;;;;;9.85;46.25;94844.41;5097238;28;20190;-73
2022/04/04 00:13:48;;;;;;;4.13;3.80;;;;;;;9.85;46.23;94840.09;5111370;28;20640;-73
2022/04/04 00:16:15;;;;;;;4.53;3.90;;;;;;;9.85;46.28;94846.97;5112976;28;20191;-76
2022/04/04 00:18:43;;;;;;;5.20;4.23;;;;;;;9.85;46.13;94840.09;5111374;28;20192;-76
2022/04/04 00:21:10;;;;;;;4.80;4.30;;;;;;;9.87;46.10;94838.22;5112839;28;20656;-74
2022/04/04 00:23:37;;;;;;;4.20;3.80;;;;;;;9.83;46.21;94848.81;5113711;28;20193;-76
2022/04/04 00:26:05;;;;;;;4.63;3.67;;;;;;;9.81;46.34;94838.75;5113002;28;20204;-75
2022/04/04 00:28:32;;;;;;;4.30;3.90;;;;;;;9.75;46.18;94842.59;5094338;28;20193;-75
2022/04/04 00:30:59;;;;;;;4.73;4.10;;;;;;;9.69;46.33;94820.16;5092582;28;20272;-75
2022/04/04 00:33:26;;;;;;;3.90;3.60;;;;;;;9.74;46.49;94843.53;5105502;28;20215;-75
2022/04/04 00:35:54;;;;;;;4.17;3.53;;;;;;;9.67;46.54;94829.69;5113099;28;20268;-75
2022/04/04 00:38:22;;;;;;;5.60;4.00;;;;;;;9.78;46.46;94846.66;5112628;28;20636;-76
2022/04/04 00:40:49;;;;;;;3.87;3.53;;;;;;;9.78;46.54;94842.34;5112572;28;20609;-75
2022/04/04 00:43:16;;;;;;;5.37;3.90;;;;;;;9.76;46.60;94844.22;5111714;28;20204;-77
2022/04/04 00:45:45;;;;;;;4.83;4.33;;;;;;;9.69;46.35;94830.34;5113264;28;20217;-75
2022/04/04 00:48:12;;;;;;;4.20;3.73;;;;;;;9.75;46.46;94840.03;5112394;28;20721;-74
2022/04/04 00:50:39;;;;;;;5.33;3.83;;;;;;;9.76;46.38;94845.97;5112877;28;20185;-74
2022/04/04 00:53:09;;;;;;;4.47;3.90;;;;;;;9.71;46.53;94845.53;5101130;28;20225;-75
2022/04/04 00:55:36;;;;;;;4.57;3.80;;;;;;;9.62;46.67;94828.44;5092464;28;20285;-75
2022/04/04 00:58:03;;;;;;;4.00;3.70;;;;;;;9.66;46.65;94847.69;5092113;28;20194;-73
2022/04/04 01:00:31;;;;;;;4.50;4.10;;;;;;;9.63;46.70;94846.19;5092235;28;20196;-75
2022/04/04 01:02:58;;;;;;;4.13;3.77;;;;;;;9.58;46.98;94848.31;5092057;28;20194;-76
2022/04/04 01:05:25;;;;;;;5.10;3.90;;;;;;;9.58;46.93;94852.59;5092112;28;20539;-74
2022/04/04 01:07:52;;;;;;;4.00;3.60;;;;;;;9.57;47.06;94848.44;5091683;28;20641;-74
2022/04/04 01:10:20;;;;;;;4.37;3.97;;;;;;;9.55;47.10;94836.63;5091618;28;20201;-74
2022/04/04 01:12:51;;;;;;;5.10;3.90;;;;;;;9.54;47.13;94841.84;5109848;28;20641;-74
2022/04/04 01:15:18;;;;;;;3.70;3.33;;;;;;;9.53;47.10;94832.56;5112103;28;20276;-74
2022/04/04 01:17:45;;;;;;;4.00;3.70;;;;;;;9.54;46.87;94840.13;5112186;28;20272;-75
2022/04/04 01:20:12;;;;;;;4.13;3.73;;;;;;;9.52;46.99;94841.16;5109844;28;20189;-74
2022/04/04 01:22:40;;;;;;;4.03;3.70;;;;;;;9.52;46.92;94838.63;5112002;28;20656;-74
2022/04/04 01:25:09;;;;;;;3.67;3.37;;;;;;;9.51;46.95;94842.13;5111361;28;20228;-74
2022/04/04 01:27:36;;;;;;;4.87;3.90;;;;;;;9.53;46.85;94837.66;5111546;28;20591;-75
2022/04/04 01:30:03;;;;;;;3.27;2.97;;;;;;;9.52;46.77;94828.41;5112282;28;20187;-75
2022/04/04 01:32:30;;;;;;;3.60;3.30;;;;;;;9.50;46.86;94817.53;5094831;28;20181;-75
2022/04/04 01:34:57;;;;;;;3.77;3.40;;;;;;;9.52;46.85;94820.75;5090983;28;20548;-76
2022/04/04 01:37:23;;;;;;;4.07;3.17;;;;;;;9.49;46.75;94829.47;5091458;28;20189;-75
2022/04/04 01:39:50;;;;;;;4.07;3.60;;;;;;;9.45;46.64;94827.28;5090977;28;20247;-74
2022/04/04 01:42:18;;;;;;;3.37;3.07;;;;;;;9.38;46.65;94823.66;5090880;28;20198;-74
2022/04/04 01:44:47;;;;;;;4.60;4.13;;;;;;;9.33;46.82;94826.59;5091084;28;20205;-74
2022/04/04 01:47:14;;;;;;;4.90;3.60;;;;;;;9.30;46.93;94837.03;5090878;28;20192;-75
2022/04/04 01:49:41;;;;;;;4.00;3.50;;;;;;;9.27;46.98;94837.28;5091073;28;20243;-75
2022/04/04 01:52:09;;;;;;;3.90;3.53;;;;;;;9.23;46.96;94836.72;5105406;28;20181;-74
2022/04/04 01:54:35;;;;;;;3.60;3.30;;;;;;;9.17;47.29;94842.34;5110925;28;20196;-75
2022/04/04 01:57:02;;;;;;;4.77;3.53;;;;;;;9.17;46.98;94841.53;5110730;28;20189;-75
2022/04/04 01:59:30;;;;;;;3.50;3.20;;;;;;;9.11;47.18;94836.91;5111458;28;20725;-75
2022/04/04 02:01:57;;;;;;;5.40;3.70;;;;;;;9.10;47.17;94838.66;5111224;28;20208;-75
2022/04/04 02:04:24;;;;;;;3.97;3.30;;;;;;;9.08;47.15;94837.19;5111064;28;20189;-74
2022/04/04 02:06:51;;;;;;;3.60;3.30;;;;;;;9.08;47.42;94843.09;5111338;28;20188;-73
2022/04/04 02:09:18;;;;;;;3.73;3.40;;;;;;;9.07;47.20;94843.19;5111077;28;20189;-73
2022/04/04 02:11:45;;;;;;;4.07;3.67;;;;;;;9.08;47.09;94834.63;5093074;28;20212;-75
2022/04/04 02:14:12;;;;;;;4.10;3.70;;;;;;;9.03;47.14;94819.69;5091039;28;20190;-74
2022/04/04 02:16:40;;;;;;;3.30;3.00;;;;;;;9.06;47.11;94827.09;5090886;28;20193;-74
2022/04/04 02:19:07;;;;;;;4.53;3.73;;;;;;;9.07;47.06;94821.06;5090825;28;20182;-74
2022/04/04 02:21:33;;;;;;;3.50;3.17;;;;;;;9.11;46.94;94822.44;5090109;28;20194;-74
2022/04/04 02:24:00;;;;;;;4.17;3.70;;;;;;;9.05;46.78;94821.19;5090576;28;20656;-74
2022/04/04 02:26:27;;;;;;;3.67;3.37;;;;;;;9.13;46.73;94822.31;5090976;28;20612;-75
2022/04/04 02:28:54;;;;;;;3.57;3.27;;;;;;;9.13;46.74;94825.66;5090496;28;20251;-75
2022/04/04 02:31:21;;;;;;;4.73;3.90;;;;;;;9.14;46.75;94824.72;5106332;28;20197;-75
2022/04/04 02:33:50;;;;;;;5.70;3.50;;;;;;;9.15;46.80;94820.41;5110638;28;20181;-75
2022/04/04 02:36:16;;;;;;;3.63;3.33;;;;;;;9.16;46.58;94820.31;5110495;28;20229;-74
2022/04/04 02:38:43;;;;;;;7.00;5.27;;;;;;;9.17;46.63;94816.81;5110448;28;20189;-74
2022/04/04 02:41:10;;;;;;;6.97;4.77;;;;;;;9.12;46.72;94808.75;5108987;28;20185;-74
2022/04/04 02:43:37;;;;;;;6.70;5.63;;;;;;;9.12;46.74;94813.03;5110751;28;20188;-75
2022/04/04 02:46:04;;;;;;;9.93;8.03;;;;;;;9.12;46.73;94813.03;5109949;28;20270;-75
2022/04/04 02:48:31;;;;;;;10.33;6.97;;;;;;;9.08;46.80;94804.00;5110603;28;20200;-74
2022/04/04 02:50:59;;;;;;;8.23;6.33;;;;;;;9.10;46.66;94808.03;5096967;28;20190;-74
2022/04/04 02:53:26;;;;;;;10.30;7.70;;;;;;;9.07;46.61;94804.94;5089669;28;20653;-74
2022/04/04 02:58:37;;;;;;;9.33;6.73;;;;;;;9.01;46.90;94809.59;5090542;28;20675;-74
2022/04/04 03:01:04;;;;;;;8.60;6.93;;;;;;;8.99;47.05;94810.69;5090369;28;20202;-75
2022/04/04 03:03:31;;;;;;;6.40;5.77;;;;;;;8.97;47.16;94805.69;5089753;28;20266;-74
2022/04/04 03:05:59;;;;;;;6.63;5.90;;;;;;;8.99;47.04;94803.84;5092746;28;20225;-74
2022/04/04 03:08:26;;;;;;;7.03;5.53;;;;;;;8.92;47.05;94810.34;5094166;28;20192;-75
2022/04/04 03:10:52;;;;;;;6.90;5.07;;;;;;;8.93;47.16;94809.41;5094051;28;20688;-75
2022/04/04 03:13:19;;;;;;;8.70;5.70;;;;;;;8.85;47.25;94800.78;5094138;28;20190;-74
2022/04/04 03:15:46;;;;;;;7.23;5.17;;;;;;;8.80;47.24;94799.41;5094434;28;20200;-74
2022/04/04 03:18:13;;;;;;;5.00;4.50;;;;;;;8.77;47.39;94806.50;5093923;28;20259;-75
2022/04/04 03:20:40;;;;;;;5.30;4.80;;;;;;;8.70;47.42;94795.97;5093715;28;20194;-75
2022/04/04 03:23:08;;;;;;;5.07;4.67;;;;;;;8.73;47.57;94807.69;5094523;28;20204;-75
2022/04/04 03:25:35;;;;;;;5.53;5.03;;;;;;;8.68;47.60;94810.63;5093931;28;20220;-76
2022/04/04 03:28:02;;;;;;;5.67;5.00;;;;;;;8.64;47.79;94818.63;5095997;28;20212;-75
2022/04/04 03:30:29;;;;;;;4.97;4.57;;;;;;;8.64;47.54;94821.19;5113996;28;20188;-74
2022/04/04 03:32:58;;;;;;;5.23;4.70;;;;;;;8.61;48.10;94839.25;5114434;28;20702;-75
2022/04/04 03:35:26;;;;;;;6.63;4.87;;;;;;;8.55;48.05;94830.38;5113667;28;20239;-75
2022/04/04 03:37:55;;;;;;;5.83;4.97;;;;;;;8.53;47.93;94833.03;5109735;28;20174;-74
2022/04/04 03:40:23;;;;;;;5.63;5.13;;;;;;;8.52;47.90;94841.59;5093413;28;20684;-74
2022/04/04 03:42:52;;;;;;;4.90;4.33;;;;;;;8.53;47.84;94832.22;5093853;28;20201;-74
2022/04/04 03:45:20;;;;;;;5.33;4.83;;;;;;;8.54;47.82;94833.81;5093169;28;20210;-75
2022/04/04 03:47:48;;;;;;;4.77;4.37;;;;;;;8.58;47.95;94836.94;5094209;28;20181;-74
2022/04/04 03:50:15;;;;;;;5.50;5.00;;;;;;;8.58;47.93;94831.84;5113179;28;20189;-74
2022/04/04 03:52:44;;;;;;;4.97;4.57;;;;;;;8.61;47.92;94846.91;5108696;28;20660;-76
2022/04/04 03:55:13;;;;;;;5.87;5.00;;;;;;;8.59;47.96;94854.66;5093519;28;20562;-75
2022/04/04 03:57:42;;;;;;;5.37;4.67;;;;;;;8.62;47.94;94853.63;5093448;28;20197;-74
2022/04/04 04:00:11;;;;;;;5.30;4.80;;;;;;;8.61;47.92;94852.00;5093509;28;20185;-74
2022/04/04 04:02:38;;;;;;;9.00;4.53;;;;;;;8.51;47.84;94831.53;5093191;28;20194;-74
2022/04/04 04:05:06;;;;;;;5.33;4.83;;;;;;;8.69;47.69;94860.66;5093291;28;20189;-74
2022/04/04 04:07:32;;;;;;;6.37;4.83;;;;;;;8.70;47.78;94861.47;5098248;28;20195;-75
2022/04/04 04:09:59;;;;;;;6.47;5.07;;;;;;;8.75;47.65;94865.25;5113695;28;20192;-75
2022/04/04 04:12:27;;;;;;;5.70;4.77;;;;;;;8.77;47.44;94865.16;5112901;28;20188;-76
2022/04/04 04:14:55;;;;;;;6.00;5.40;;;;;;;8.70;47.41;94862.28;5113440;28;20292;-75
2022/04/04 04:17:24;;;;;;;5.87;5.23;;;;;;;8.81;47.26;94879.28;5112608;28;20207;-75
2022/04/04 04:22:36;;;;;;;5.63;5.07;;;;;;;8.84;47.37;94891.75;5106481;28;20269;-76
2022/04/04 04:25:05;;;;;;;6.40;5.53;;;;;;;8.87;47.25;94885.63;5102707;28;20209;-75
2022/04/04 04:27:32;;;;;;;7.60;5.27;;;;;;;8.89;47.21;94894.75;5103139;28;20208;-75
2022/04/04 04:30:00;;;;;;;5.27;4.77;;;;;;;8.94;46.96;94900.31;5111166;28;20185;-73
2022/04/04 04:32:27;;;;;;;4.90;4.40;;;;;;;8.96;46.87;94895.91;5093469;28;20213;-80
2022/04/04 04:34:54;;;;;;;6.73;4.90;;;;;;;8.99;46.95;94899.94;5093763;28;20189;-74
2022/04/04 04:37:22;;;;;;;6.13;5.47;;;;;;;9.02;46.87;94899.69;5092549;28;20194;-80
2022/04/04 04:39:49;;;;;;;7.00;5.47;;;;;;;9.10;46.61;94914.38;5092762;28;20219;-74
2022/04/04 04:42:16;;;;;;;5.53;4.90;;;;;;;9.11;46.35;94909.19;5092070;28;20184;-77
2022/04/04 04:44:44;;;;;;;5.70;4.80;;;;;;;9.14;46.47;94896.16;5092243;28;20288;-78
2022/04/04 04:47:14;;;;;;;6.07;5.10;;;;;;;9.22;46.31;94905.75;5109086;28;20216;-76
2022/04/04 04:49:41;;;;;;;7.37;5.33;;;;;;;9.27;46.25;94913.84;5112883;28;20224;-74
2022/04/04 04:52:08;;;;;;;7.20;5.10;;;;;;;9.30;46.19;94911.03;5112328;28;20279;-74
2022/04/04 04:54:35;;;;;;;5.63;5.13;;;;;;;9.37;46.21;94909.63;5095085;28;20195;-75
2022/04/04 04:57:01;;;;;;;5.93;5.40;;;;;;;9.42;45.96;94910.03;5088231;28;20197;-74
2022/04/04 04:59:28;;;;;;;5.73;5.13;;;;;;;9.45;45.80;94914.88;5099063;28;20185;-80
2022/04/04 05:01:55;;;;;;;6.80;5.00;;;;;;;9.24;45.78;94874.06;5097128;28;20178;-77
2022/04/04 05:04:23;;;;;;;7.93;5.40;;;;;;;10.01;100.00;94924.69;5090231;28;20212;-75
2022/04/04 05:06:50;;;;;;;16.30;6.07;;;;;;;10.93;100.00;94916.88;5089956;28;20232;-76
2022/04/04 05:09:18;;;;;;;11.80;5.90;;;;;;;11.82;100.00;94911.50;5090117;28;20205;-76
2022/04/04 05:11:45;;;;;;;6.07;5.07;;;;;;;12.66;100.00;94923.44;5107272;28;20201;-79
2022/04/04 05:14:15;;;;;;;5.53;4.17;;;;;;;13.40;100.00;94917.22;5110318;28;20192;-75
2022/04/04 05:16:43;;;;;;;7.13;5.20;;;;;;;14.06;96.66;94920.03;5094758;28;20657;-73
2022/04/04 05:19:10;;;;;;;6.03;5.03;;;;;;;14.34;89.04;94931.91;5091627;28;20185;-75
2022/04/04 05:21:38;;;;;;;6.73;4.97;;;;;;;14.26;78.40;94927.53;5102452;28;20192;-75
2022/04/04 05:24:06;;;;;;;6.37;5.47;;;;;;;14.14;68.75;94926.97;5102623;28;20194;-75
2022/04/04 05:26:33;;;;;;;6.23;5.63;;;;;;;13.95;61.35;94933.16;5091180;28;20599;-75
2022/04/04 05:29:00;;;;;;;6.10;5.50;;;;;;;13.75;58.05;94934.31;5090578;28;20477;-75
2022/04/04 05:31:30;;;;;;;6.60;5.93;;;;;;;13.50;55.65;94939.28;5091368;28;20186;-75
2022/04/04 05:33:57;;;;;;;5.40;4.90;;;;;;;13.34;53.38;94944.28;5091444;28;20269;-74
2022/04/04 05:36:24;;;;;;;6.70;4.87;;;;;;;13.15;51.76;94952.13;5091424;28;20216;-75
2022/04/04 05:38:53;;;;;;;6.17;5.60;;;;;;;13.00;50.62;94962.13;5091700;28;20178;-74
2022/04/04 05:41:20;;;;;;;5.80;5.10;;;;;;;12.85;50.28;94953.28;5090798;28;20197;-75
2022/04/04 05:43:47;;;;;;;6.00;5.23;;;;;;;12.73;49.37;94963.75;5091549;28;20196;-75
2022/04/04 05:46:15;;;;;;;7.07;5.00;;;;;;;12.60;48.75;94957.34;5090748;28;20257;-75
2022/04/04 05:48:42;;;;;;;7.17;4.77;;;;;;;12.49;48.24;94954.03;5091329;28;20193;-75
2022/04/04 05:51:21;;;;;;;6.40;5.70;;;;;;;12.37;47.59;94955.16;5090771;28;20193;-76
2022/04/04 05:53:48;;;;;;;6.47;5.23;;;;;;;12.30;47.03;94956.66;5091224;28;20244;-74
2022/04/04 05:56:16;;;;;;;6.13;5.33;;;;;;;12.26;47.16;94968.16;5090702;28;20197;-77
2022/04/04 05:58:43;;;;;;;6.63;5.40;;;;;;;12.24;46.97;94967.50;5091033;28;20289;-77
2022/04/04 06:01:10;;;;;;;5.27;4.77;;;;;;;12.20;46.59;94969.53;5090870;28;20229;-76
2022/04/04 06:03:37;;;;;;;5.70;5.20;;;;;;;12.23;46.85;94964.13;5091196;28;20251;-75
2022/04/04 06:06:04;;;;;;;7.50;5.43;;;;;;;12.23;46.52;94964.13;5088638;28;20676;-78
2022/04/04 06:08:32;;;;;;;5.97;5.43;;;;;;;12.23;46.48;94969.25;5090917;28;20194;-77
2022/04/04 06:10:59;;;;;;;6.87;5.63;;;;;;;12.33;46.37;94971.78;5090908;28;20189;-76
2022/04/04 06:13:27;;;;;;;6.47;5.13;;;;;;;12.41;46.19;94959.06;5090947;28;20182;-76
2022/04/04 06:15:54;;;;;;;7.87;5.60;;;;;;;12.62;45.96;94963.97;5090686;28;20189;-75
2022/04/04 06:18:21;;;;;;;6.67;5.63;;;;;;;12.83;45.61;94962.91;5090778;28;20625;-76
2022/04/04 06:20:48;;;;;;;6.93;4.97;;;;;;;13.03;45.61;94962.59;5090384;28;20186;-76
2022/04/04 06:23:15;;;;;;;5.80;4.97;;;;;;;13.23;45.24;94957.38;5090273;28;20189;-75
2022/04/04 06:25:42;;;;;;;7.27;5.00;;;;;;;13.48;44.94;94946.34;5084365;28;20556;-76
2022/04/04 06:28:09;;;;;;;5.40;4.90;;;;;;;13.74;44.61;94950.72;5089495;28;20261;-75
2022/04/04 06:30:37;;;;;;;5.07;4.63;;;;;;;13.98;44.34;94942.31;5101395;28;20220;-75
2022/04/04 06:33:05;;;;;;;5.90;4.80;;;;;;;14.31;44.22;94941.53;5089869;28;20182;-77
2022/04/04 06:35:33;;;;;;;5.20;4.70;;;;;;;14.59;43.68;94948.25;5094969;28;20201;-74
2022/04/04 06:38:02;;;;;;;6.17;5.47;;;;;;;14.88;43.19;94958.16;5110072;28;20225;-75
2022/04/04 06:40:30;;;;;;;5.80;5.30;;;;;;;15.11;42.76;94960.94;5110508;28;20197;-76
2022/04/04 06:42:58;;;;;;;6.77;5.50;;;;;;;15.29;42.19;94957.28;5109764;28;20181;-75
2022/04/04 06:45:25;;;;;;;5.40;4.90;;;;;;;15.53;41.48;94968.53;5110421;28;20215;-78
2022/04/04 06:47:53;;;;;;;4.93;4.53;;;;;;;15.75;41.48;94960.19;5110235;28;20209;-76
2022/04/04 06:50:21;;;;;;;5.03;4.53;;;;;;;16.02;41.29;94955.66;5110228;28;20198;-78
2022/04/04 06:52:48;;;;;;;10.20;5.53;;;;;;;16.30;40.64;94961.22;5110092;28;20220;-77
2022/04/04 06:55:15;;;;;;;5.23;4.57;;;;;;;16.58;40.38;94974.53;5094986;28;20599;-76
2022/04/04 06:57:43;;;;;;;6.10;4.50;;;;;;;16.86;39.87;94977.47;5087899;28;20631;-77
2022/04/04 07:00:12;;;;;;;5.07;4.60;;;;;;;17.13;39.37;94973.59;5089480;28;20190;-76
2022/04/04 07:02:39;;;;;;;4.13;3.73;;;;;;;17.44;39.45;94980.50;5089776;28;20182;-76
2022/04/04 07:05:08;;;;;;;6.23;4.27;;;;;;;17.69;38.94;94966.41;5089841;28;20181;-78
2022/04/04 07:07:35;;;;;;;4.30;4.00;;;;;;;17.93;38.64;94965.44;5089415;28;20217;-77
2022/04/04 07:10:03;;;;;;;4.30;3.90;;;;;;;18.22;38.18;94974.19;5089606;28;20177;-77
2022/04/04 07:12:30;;;;;;;4.57;4.17;;;;;;;18.45;37.47;94966.38;5106386;28;20185;-76
2022/04/04 07:14:57;;;;;;;7.27;4.10;;;;;;;18.67;37.10;94968.03;5096006;28;20190;-76
2022/04/04 07:17:24;;;;;;;4.03;3.63;;;;;;;18.92;36.73;94975.53;5089736;28;20198;-79
2022/04/04 07:19:52;;;;;;;5.20;4.07;;;;;;;19.19;36.37;94977.44;5099359;28;20192;-76
2022/04/04 07:22:20;;;;;;;4.00;3.70;;;;;;;19.39;36.04;94975.06;5098938;28;20227;-76
2022/04/04 07:24:48;;;;;;;4.43;3.90;;;;;;;19.66;35.44;94972.72;5088250;28;20572;-77
2022/04/04 07:27:16;;;;;;;4.83;3.97;;;;;;;19.89;34.95;94978.50;5088973;28;20236;-78
2022/04/04 07:29:43;;;;;;;4.27;3.87;;;;;;;20.16;34.56;94987.25;5088721;28;20192;-76
2022/04/04 07:32:10;;;;;;;4.10;3.70;;;;;;;20.45;34.18;94985.47;5089287;28;20182;-76
2022/04/04 07:34:37;;;;;;;4.03;3.63;;;;;;;20.70;34.23;94978.03;5088447;28;20182;-75
2022/04/04 07:37:05;;;;;;;4.50;4.10;;;;;;;21.02;33.89;94984.34;5088663;28;20190;-76
2022/04/04 07:39:33;;;;;;;4.17;3.63;;;;;;;21.25;33.25;94990.03;5090270;28;20194;-76
2022/04/04 07:42:00;;;;;;;4.37;3.93;;;;;;;21.43;32.85;94981.69;5088610;28;20193;-77
2022/04/04 07:44:27;;;;;;;5.13;4.57;;;;;;;21.61;32.79;94991.53;5087427;28;20194;-77
2022/04/04 07:46:54;;;;;;;4.87;4.40;;;;;;;21.73;32.29;94987.34;5089257;28;20558;-77
2022/04/04 07:49:21;;;;;;;4.43;4.03;;;;;;;21.88;31.82;94987.13;5087088;28;20194;-74
2022/04/04 07:51:48;;;;;;;4.80;4.30;;;;;;;21.98;31.36;94984.94;5090150;28;20185;-78
2022/04/04 07:54:15;;;;;;;5.18;4.65;;;;;;;22.13;31.01;94991.75;5095165;28;20612;-75
2022/04/04 07:56:43;;;;;;;6.05;4.55;;;;;;;22.22;30.79;94996.56;5092375;28;20198;-76
2022/04/04 07:59:10;;;;;;;6.28;4.60;;;;;;;22.29;30.76;94999.16;5092548;28;20201;-78
2022/04/04 08:01:37;;;;;;;9.98;5.72;;;;;;;22.34;30.32;94995.94;5092457;28;20189;-77
2022/04/04 08:04:05;;;;;;;6.10;5.25;;;;;;;22.33;30.09;94984.72;5092720;28;20197;-79
2022/04/04 08:06:32;;;;;;;7.50;5.25;;;;;;;22.46;30.07;94999.53;5091875;28;20225;-79
2022/04/04 08:08:59;;;;;;;6.40;5.15;;;;;;;22.52;29.62;94994.31;5092651;28;20588;-78
2022/04/04 08:11:26;;;;;;;5.70;5.13;;;;;;;22.60;29.55;94993.28;5091927;28;20190;-76
2022/04/04 08:13:56;;;;;;;6.35;4.93;;;;;;;22.64;29.22;94991.09;5091431;28;20595;-77
2022/04/04 08:16:25;;;;;;;7.38;5.47;;;;;;;22.69;29.34;94981.63;5091699;28;20229;-78
2022/04/04 08:18:53;;;;;;;6.30;5.13;;;;;;;22.78;29.05;94988.22;5094439;28;20284;-78
2022/04/04 08:21:20;;;;;;;8.93;5.50;;;;;;;22.82;29.04;94988.59;5092321;28;20658;-79
2022/04/04 08:23:47;;;;;;;8.07;6.10;;;;;;;22.85;29.03;94979.59;5091912;28;20186;-78
2022/04/04 08:26:16;;;;;;;8.88;5.40;;;;;;;22.86;29.03;94979.38;5092215;28;20599;-77
2022/04/04 08:28:42;;;;;;;9.07;5.75;;;;;;;22.87;28.72;94977.56;5092022;28;20217;-77
2022/04/04 08:31:11;;;;;;;5.72;4.95;;;;;;;22.83;28.88;94974.56;5092268;28;20280;-78
2022/04/04 08:33:38;;;;;;;5.60;4.78;;;;;;;22.86;28.68;94968.13;5091228;28;20250;-78
2022/04/04 08:36:06;;;;;;;5.10;4.60;;;;;;;22.75;28.71;94954.75;5092072;28;20197;-77
2022/04/04 08:38:35;;;;;;;10.05;4.40;;;;;;;22.78;28.61;94967.34;5090083;28;20200;-78
2022/04/04 08:41:04;;;;;;;5.38;4.65;;;;;;;22.77;28.70;94965.75;5088051;28;20213;-76
2022/04/04 08:43:36;;;;;;;4.57;4.18;;;;;;;22.74;28.75;94958.34;5091461;28;20251;-77
2022/04/04 08:46:05;;;;;;;5.35;4.82;;;;;;;22.75;28.61;94954.75;5091875;28;20213;-78
2022/04/04 08:48:34;;;;;;;6.93;5.18;;;;;;;22.78;28.72;94949.09;5091897;28;20669;-77
2022/04/04 08:51:01;;;;;;;6.10;5.43;;;;;;;22.78;28.42;94954.31;5092743;28;20186;-78
2022/04/04 08:53:29;;;;;;;5.40;4.90;;;;;;;22.78;28.49;94948.31;5092564;28;20218;-78
2022/04/04 08:55:57;;;;;;;6.05;5.45;;;;;;;22.73;28.71;94941.09;5091972;28;20193;-78
2022/04/04 08:58:24;;;;;;;6.22;5.35;;;;;;;22.72;28.33;94939.50;5093660;28;20186;-78
2022/04/04 09:00:51;;;;;;;8.52;5.28;;;;;;;22.66;28.72;94929.88;5091093;28;20194;-77
2022/04/04 09:03:21;;;;;;;5.63;5.13;;;;;;;22.67;28.20;94933.31;5090807;28;20216;-74
2022/04/04 09:05:54;;;;;;;6.38;4.90;;;;;;;22.62;28.33;94928.69;5089621;28;20247;-78
2022/04/04 09:08:21;;;;;;;6.60;5.88;;;;;;;22.64;28.45;94928.50;5091341;28;20222;-78
2022/04/04 09:10:54;;;;;;;7.63;5.55;;;;;;;22.61;28.47;94927.09;5091153;28;20276;-78
2022/04/04 09:13:22;;;;;;;6.32;5.72;;;;;;;22.63;28.40;94932.13;5088049;28;20646;-76
2022/04/04 09:16:10;;;;;;;6.63;5.28;;;;;;;22.64;28.20;94926.69;5090662;28;20193;-78
2022/04/04 09:18:50;;;;;;;8.00;4.80;;;;;;;22.62;28.01;94909.66;5007047;28;20192;-75
2022/04/04 09:21:33;;;;;;;10.77;5.22;;;;;;;22.64;28.15;94912.88;5008442;28;20283;-77
2022/04/04 09:24:07;;;;;;;6.07;5.43;;;;;;;22.72;28.44;94918.66;5007428;28;20197;-75
2022/04/04 09:26:36;;;;;;;5.85;5.35;;;;;;;22.74;28.25;94908.00;5008166;28;20192;-78
2022/04/04 09:29:09;;;;;;;7.88;5.15;;;;;;;22.72;28.38;94897.78;5008242;28;20200;-79
2022/04/04 09:31:37;;;;;;;12.65;5.35;;;;;;;22.74;28.36;94900.19;5008233;28;20587;-79
2022/04/04 09:34:06;;;;;;;6.22;5.30;;;;;;;22.68;28.35;94899.22;5005705;28;20307;-77
2022/04/04 09:36:47;;;;;;;5.50;4.93;;;;;;;22.59;28.40;94892.63;5001058;28;20224;-77
2022/04/04 09:39:15;;;;;;;5.60;5.10;;;;;;;22.54;28.61;94892.47;5006334;28;20271;-76
2022/04/04 09:41:42;;;;;;;8.27;5.28;;;;;;;22.52;28.34;94889.25;5005862;28;20230;-76
2022/04/04 09:44:11;;;;;;;6.05;4.93;;;;;;;22.43;28.14;94874.84;5005512;28;20207;-77
2022/04/04 09:46:41;;;;;;;5.45;4.95;;;;;;;22.43;28.60;94877.44;5007263;28;20196;-74
2022/04/04 09:49:11;;;;;;;6.53;4.68;;;;;;;22.38;28.70;94879.88;5001519;28;20319;-75
2022/04/04 09:51:44;;;;;;;8.70;4.72;;;;;;;22.33;28.64;94875.28;5007632;28;20192;-75
2022/04/04 09:54:15;;;;;;;6.22;4.70;;;;;;;22.33;28.65;94869.28;5008113;28;20228;-76
2022/04/04 09:56:42;;;;;;;7.20;4.60;;;;;;;22.32;28.69;94867.66;5084832;28;20254;-76
2022/04/04 09:59:11;;;;;;;7.15;4.50;;;;;;;22.31;28.56;94866.88;5089910;28;20285;-74
2022/04/04 10:01:39;;;;;;;8.20;4.55;;;;;;;22.31;28.69;94863.47;5089951;28;20193;-77
2022/04/04 10:04:09;;;;;;;7.75;4.72;;;;;;;22.33;28.57;94853.66;5090270;28;20190;-77
2022/04/04 10:06:39;;;;;;;4.80;4.38;;;;;;;22.26;28.66;94832.81;5089243;28;20201;-76
2022/04/04 10:09:07;;;;;;;7.53;4.65;;;;;;;22.34;28.51;94850.03;5087682;28;20733;-76
2022/04/04 10:11:35;;;;;;;5.60;4.65;;;;;;;22.36;28.66;94845.41;5089671;28;20223;-74
2022/04/04 10:14:02;;;;;;;5.88;4.32;;;;;;;22.38;28.80;94840.78;5086844;28;20338;-75
2022/04/04 10:16:31;;;;;;;6.18;4.88;;;;;;;22.37;28.70;94834.78;5088710;28;20546;-76
2022/04/04 10:18:58;;;;;;;5.22;4.22;;;;;;;22.28;28.79;94820.41;5089207;28;20220;-76
2022/04/04 10:21:26;;;;;;;3.95;3.65;;;;;;;22.28;28.79;94831.63;5089464;28;20189;-74
2022/04/04 10:23:56;;;;;;;7.00;4.97;;;;;;;22.16;28.57;94816.81;5089493;28;20216;-75
2022/04/04 10:26:29;;;;;;;4.90;4.40;;;;;;;22.12;28.86;94818.22;5089781;28;20192;-74
2022/04/04 10:29:09;;;;;;;5.13;4.47;;;;;;;22.07;28.74;94818.03;5089488;28;20286;-75
2022/04/04 10:31:44;;;;;;;5.90;4.90;;;;;;;22.03;28.73;94810.63;5089185;28;20636;-76
2022/04/04 10:34:13;;;;;;;4.65;4.22;;;;;;;22.01;28.75;94815.22;5091805;28;20196;-74
2022/04/04 10:36:55;;;;;;;5.00;4.50;;;;;;;21.96;28.55;94804.63;5089358;28;20186;-74
2022/04/04 10:39:32;;;;;;;5.37;3.93;;;;;;;21.95;28.68;94803.03;5086788;28;20225;-74
2022/04/04 10:42:01;;;;;;;8.05;4.25;;;;;;;21.94;28.74;94800.66;5089270;28;20193;-73
2022/04/04 10:44:47;;;;;;;4.72;4.32;;;;;;;21.90;28.70;94796.84;5089791;28;20623;-77
2022/04/04 10:47:25;;;;;;;6.10;4.50;;;;;;;21.88;28.71;94791.81;5088849;28;20221;-77
2022/04/04 10:49:51;;;;;;;5.63;4.83;;;;;;;21.81;29.06;94785.06;5086749;28;20298;-77
2022/04/04 10:52:19;;;;;;;5.63;4.75;;;;;;;21.82;28.99;94791.88;5088902;28;20220;-79
2022/04/04 10:54:47;;;;;;;5.70;4.67;;;;;;;21.78;29.12;94789.66;5090385;28;20593;-75
2022/04/04 10:57:19;;;;;;;5.83;4.70;;;;;;;21.73;29.09;94794.69;5089290;28;20663;-74
2022/04/04 10:59:47;;;;;;;5.70;4.37;;;;;;;21.72;29.15;94787.09;5088506;28;20624;-76
2022/04/04 11:02:18;;;;;;;4.60;4.20;;;;;;;21.67;29.22;94779.06;5089220;28;20197;-75
2022/04/04 11:07:42;;;;;;;4.47;4.07;;;;;;;21.63;29.19;94785.69;5087784;28;20297;-75
2022/04/04 11:10:11;;;;;;;7.88;4.07;;;;;;;21.56;29.04;94780.50;5089323;28;20233;-77
2022/04/04 11:12:57;;;;;;;8.90;4.10;;;;;;;21.52;29.11;94772.31;5089804;28;20229;-76
2022/04/04 11:15:42;;;;;;;4.82;4.43;;;;;;;21.60;29.10;94781.69;5086230;28;20204;-75
2022/04/04 11:18:10;;;;;;;4.97;3.63;;;;;;;21.63;29.13;94783.09;5089057;28;20648;-75
2022/04/04 11:20:43;;;;;;;5.03;3.87;;;;;;;21.63;29.13;94783.09;5088570;28;20201;-76
2022/04/04 11:23:11;;;;;;;7.17;4.53;;;;;;;21.62;29.09;94773.69;5088722;28;20683;-75
2022/04/04 11:25:48;;;;;;;4.33;3.93;;;;;;;21.64;29.08;94767.28;5088686;28;20739;-78
2022/04/04 11:28:18;;;;;;;5.73;4.30;;;;;;;21.67;29.10;94766.06;5092869;28;20209;-74
2022/04/04 11:30:45;;;;;;;5.33;4.40;;;;;;;21.67;29.12;94772.06;5090321;28;20193;-77
2022/04/04 11:33:21;;;;;;;6.47;3.97;;;;;;;21.69;29.11;94764.06;5092960;28;20181;-78
2022/04/04 11:35:50;;;;;;;5.90;4.30;;;;;;;21.65;29.11;94758.47;5085150;28;20656;-78
2022/04/04 11:38:19;;;;;;;8.97;4.43;;;;;;;21.64;29.14;94750.88;5092786;28;20194;-78
2022/04/04 11:40:52;;;;;;;4.82;4.43;;;;;;;21.62;28.96;94747.66;5092345;28;20194;-76
2022/04/04 11:43:27;;;;;;;4.20;3.78;;;;;;;21.60;29.08;94742.66;5092819;28;20285;-77
2022/04/04 11:45:54;;;;;;;4.73;3.70;;;;;;;21.59;29.15;94737.63;5090268;28;20196;-77
2022/04/04 11:48:25;;;;;;;4.03;3.63;;;;;;;21.61;29.01;94733.84;5092974;28;20202;-76
2022/04/04 11:50:57;;;;;;;3.97;3.57;;;;;;;21.66;28.94;94733.22;5092313;28;20197;-77